Blanc Sablon, Canada
Current Conditions -  °F | °C
As of 1:00 PM on Thursday 30 Oct 2014 (Local Time) from CYBX Reporting Station
Light Rain Light Rain  
Wind Chill: 39°   Ceiling: 100
Heat Index: 43°   Visibility: 0.12mi
Dew Point: 43°   Wind: 6mph
Humidity: 100%   Direction: 180°S
Pressure: 29.42"   Gusts: NA
Location:  51.43°N, 57.14°W
Report Text: CYBX 301600Z 18005KT 1/8SM -RA FG VV001 06/06 A2942 RMK FG8 WND ESTD SLP965
Loading
Personal Weather Stations






























Interactive Weather Map
Tropical Storm Tracking
New forecast layout! Learn more

10-Day Weather Forecast

Advertisements
Track Severe Weather on mobile